Terminal Aerodrome Forecast
Issued by NWS Corpus Christi, TX

Home | Current Version | Previous Version | Text Only | Print | Product List | Glossary On
Versions: 1 2 3 4 5 6 7 8 9 10 11 12
890
FTUS44 KCRP 191122
TAFVCT
TAF
KVCT 191122Z 1912/2012 02003KT 5SM BR SCT025 SCT250
      TEMPO 1912/1914 3SM BR BKN025
     FM191400 05005KT P6SM SCT025 SCT050
     FM191800 09008KT P6SM VCSH BKN035 BKN100
      TEMPO 1920/1924 VRB15G25KT 5SM -TSRA OVC035CB
     FM200000 11010KT P6SM SCT040 BKN120
     FM200400 08006KT P6SM SCT020 SCT050
     FM200800 06005KT P6SM VCSH BKN015 BKN060=

USA.gov is the U.S. government's official web portal to all federal, state and local government web resources and services.